CTN342 LDZA-LQSA
Flight info
| Callsign | CTN342 |
|---|---|
| Flight time | 0h 37m |
| Altitude | 19000 |
| Route | TEBLI L187 KOMAR DCT MARIL DCT BOSNA |
| Aircraft | A319/M-SDE3FGHIRWY/LB1 |
Departure
| Time | 2026-04-19 03:19 |
|---|---|
| Airport | Zagreb Franjo Tuđman International Airport (LDZA) |
Arrival
| Time | 2026-04-19 03:56 |
|---|---|
| Airport | Sarajevo International Airport (LQSA) |
| Time | Latitude | Longitude | Altitude | Speed | Heading |
|---|---|---|---|---|---|
| 2026-04-19 02:57 | 45.74006 | 16.07600 | 359 ft | 0 kts | 135° |
| 2026-04-19 03:12 | 45.74020 | 16.07581 | 363 ft | 4 kts | 136° |
| 2026-04-19 03:12 | 45.74040 | 16.07555 | 358 ft | 4 kts | 137° |
| 2026-04-19 03:12 | 45.74057 | 16.07533 | 366 ft | 2 kts | 137° |
| 2026-04-19 03:13 | 45.74070 | 16.07507 | 367 ft | 4 kts | 87° |
| 2026-04-19 03:13 | 45.74066 | 16.07478 | 364 ft | 4 kts | 55° |
| 2026-04-19 03:13 | 45.74059 | 16.07461 | 364 ft | 4 kts | 90° |
| 2026-04-19 03:13 | 45.74059 | 16.07448 | 363 ft | 0 kts | 83° |
| 2026-04-19 03:15 | 45.74059 | 16.07450 | 365 ft | 1 kts | 83° |
| 2026-04-19 03:15 | 45.74074 | 16.07488 | 362 ft | 8 kts | 49° |
| 2026-04-19 03:16 | 45.74133 | 16.07577 | 359 ft | 16 kts | 46° |
| 2026-04-19 03:16 | 45.74227 | 16.07718 | 359 ft | 24 kts | 47° |
| 2026-04-19 03:16 | 45.74340 | 16.07889 | 359 ft | 17 kts | 45° |
| 2026-04-19 03:16 | 45.74435 | 16.07842 | 359 ft | 20 kts | 313° |
| 2026-04-19 03:17 | 45.74541 | 16.07697 | 359 ft | 14 kts | 326° |
| 2026-04-19 03:17 | 45.74631 | 16.07787 | 362 ft | 20 kts | 48° |
| 2026-04-19 03:17 | 45.74734 | 16.07942 | 359 ft | 22 kts | 47° |
| 2026-04-19 03:17 | 45.74828 | 16.08080 | 363 ft | 10 kts | 25° |
| 2026-04-19 03:18 | 45.74889 | 16.08032 | 361 ft | 11 kts | 314° |
| 2026-04-19 03:18 | 45.74947 | 16.07949 | 358 ft | 12 kts | 320° |
| 2026-04-19 03:18 | 45.74971 | 16.07901 | 361 ft | 7 kts | 229° |
| 2026-04-19 03:18 | 45.74829 | 16.07694 | 363 ft | 72 kts | 226° |
| 2026-04-19 03:19 | 45.74279 | 16.06852 | 365 ft | 157 kts | 227° |
| 2026-04-19 03:19 | 45.73469 | 16.05668 | 1004 ft | 171 kts | 226° |
| 2026-04-19 03:19 | 45.72637 | 16.04418 | 1949 ft | 173 kts | 227° |
| 2026-04-19 03:19 | 45.71800 | 16.03133 | 2644 ft | 183 kts | 227° |
| 2026-04-19 03:20 | 45.70879 | 16.01720 | 3039 ft | 205 kts | 227° |
| 2026-04-19 03:20 | 45.69840 | 16.00131 | 3460 ft | 231 kts | 227° |
| 2026-04-19 03:20 | 45.68681 | 15.98365 | 4007 ft | 255 kts | 227° |
| 2026-04-19 03:20 | 45.67428 | 15.96462 | 4793 ft | 268 kts | 227° |
| 2026-04-19 03:21 | 45.66042 | 15.94632 | 5723 ft | 277 kts | 211° |
| 2026-04-19 03:21 | 45.64185 | 15.93902 | 6621 ft | 284 kts | 177° |
| 2026-04-19 03:21 | 45.62313 | 15.94743 | 7485 ft | 287 kts | 144° |
| 2026-04-19 03:21 | 45.60992 | 15.96830 | 7864 ft | 284 kts | 112° |
| 2026-04-19 03:22 | 45.60610 | 15.99554 | 8267 ft | 281 kts | 87° |
| 2026-04-19 03:22 | 45.60644 | 16.02355 | 9309 ft | 283 kts | 86° |
| 2026-04-19 03:22 | 45.60686 | 16.05184 | 10228 ft | 290 kts | 86° |
| 2026-04-19 03:22 | 45.60739 | 16.08184 | 10615 ft | 314 kts | 86° |
| 2026-04-19 03:23 | 45.60742 | 16.11382 | 11234 ft | 328 kts | 91° |
| 2026-04-19 03:23 | 45.60463 | 16.14654 | 12053 ft | 336 kts | 98° |
| 2026-04-19 03:23 | 45.60000 | 16.17951 | 12889 ft | 342 kts | 101° |
| 2026-04-19 03:23 | 45.59453 | 16.21289 | 13715 ft | 348 kts | 102° |
| 2026-04-19 03:24 | 45.58887 | 16.24682 | 14448 ft | 354 kts | 102° |
| 2026-04-19 03:24 | 45.58320 | 16.28131 | 15174 ft | 359 kts | 103° |
| 2026-04-19 03:24 | 45.57418 | 16.31473 | 15903 ft | 365 kts | 116° |
| 2026-04-19 03:24 | 45.56021 | 16.34529 | 16643 ft | 370 kts | 129° |
| 2026-04-19 03:25 | 45.54181 | 16.37123 | 17372 ft | 375 kts | 142° |
| 2026-04-19 03:25 | 45.52025 | 16.39177 | 18096 ft | 379 kts | 148° |
| 2026-04-19 03:25 | 45.49772 | 16.41189 | 18753 ft | 383 kts | 148° |
| 2026-04-19 03:25 | 45.47500 | 16.43218 | 19030 ft | 386 kts | 148° |
| 2026-04-19 03:26 | 45.45231 | 16.45246 | 19107 ft | 380 kts | 148° |
| 2026-04-19 03:26 | 45.43040 | 16.47206 | 19121 ft | 367 kts | 148° |
| 2026-04-19 03:26 | 45.40891 | 16.49134 | 19122 ft | 364 kts | 148° |
| 2026-04-19 03:26 | 45.38756 | 16.51045 | 19124 ft | 361 kts | 148° |
| 2026-04-19 03:27 | 45.36624 | 16.52948 | 19121 ft | 360 kts | 148° |
| 2026-04-19 03:27 | 45.34500 | 16.54840 | 19120 ft | 360 kts | 148° |
| 2026-04-19 03:27 | 45.32374 | 16.56729 | 19122 ft | 361 kts | 148° |
| 2026-04-19 03:27 | 45.30245 | 16.58619 | 19122 ft | 361 kts | 148° |
| 2026-04-19 03:28 | 45.28115 | 16.60511 | 19122 ft | 361 kts | 148° |
| 2026-04-19 03:28 | 45.25988 | 16.62401 | 19124 ft | 361 kts | 148° |
| 2026-04-19 03:28 | 45.23860 | 16.64289 | 19125 ft | 361 kts | 148° |
| 2026-04-19 03:28 | 45.21733 | 16.66173 | 19125 ft | 361 kts | 148° |
| 2026-04-19 03:29 | 45.19528 | 16.67883 | 19125 ft | 360 kts | 157° |
| 2026-04-19 03:29 | 45.17189 | 16.69149 | 19128 ft | 360 kts | 160° |
| 2026-04-19 03:29 | 45.14840 | 16.70388 | 19128 ft | 360 kts | 160° |
| 2026-04-19 03:29 | 45.12493 | 16.71629 | 19123 ft | 360 kts | 160° |
| 2026-04-19 03:30 | 45.10146 | 16.72868 | 19126 ft | 360 kts | 160° |
| 2026-04-19 03:30 | 45.07794 | 16.74110 | 19126 ft | 360 kts | 160° |
| 2026-04-19 03:30 | 45.05446 | 16.75350 | 19125 ft | 360 kts | 160° |
| 2026-04-19 03:30 | 45.03094 | 16.76590 | 19123 ft | 360 kts | 160° |
| 2026-04-19 03:31 | 45.00746 | 16.77824 | 19129 ft | 360 kts | 160° |
| 2026-04-19 03:31 | 44.98397 | 16.79073 | 19130 ft | 361 kts | 158° |
| 2026-04-19 03:31 | 44.96216 | 16.80724 | 19130 ft | 361 kts | 146° |
| 2026-04-19 03:31 | 44.94264 | 16.83014 | 19129 ft | 360 kts | 133° |
| 2026-04-19 03:32 | 44.92636 | 16.85644 | 19128 ft | 360 kts | 129° |
| 2026-04-19 03:32 | 44.91007 | 16.88333 | 19131 ft | 360 kts | 130° |
| 2026-04-19 03:32 | 44.89374 | 16.91010 | 19133 ft | 360 kts | 130° |
| 2026-04-19 03:32 | 44.87735 | 16.93683 | 19135 ft | 360 kts | 130° |
| 2026-04-19 03:33 | 44.86095 | 16.96360 | 19134 ft | 360 kts | 130° |
| 2026-04-19 03:33 | 44.84457 | 16.99034 | 19134 ft | 361 kts | 130° |
| 2026-04-19 03:33 | 44.82818 | 17.01709 | 19132 ft | 361 kts | 130° |
| 2026-04-19 03:33 | 44.81176 | 17.04389 | 19132 ft | 361 kts | 130° |
| 2026-04-19 03:34 | 44.79533 | 17.07066 | 19135 ft | 361 kts | 130° |
| 2026-04-19 03:34 | 44.77886 | 17.09744 | 19137 ft | 361 kts | 130° |
| 2026-04-19 03:34 | 44.76242 | 17.12417 | 19137 ft | 361 kts | 130° |
| 2026-04-19 03:34 | 44.74598 | 17.15088 | 19137 ft | 361 kts | 130° |
| 2026-04-19 03:35 | 44.72952 | 17.17762 | 19142 ft | 361 kts | 130° |
| 2026-04-19 03:35 | 44.71306 | 17.20432 | 19140 ft | 361 kts | 130° |
| 2026-04-19 03:35 | 44.69659 | 17.23098 | 19140 ft | 361 kts | 130° |
| 2026-04-19 03:35 | 44.68012 | 17.25760 | 19150 ft | 361 kts | 130° |
| 2026-04-19 03:36 | 44.66362 | 17.28424 | 19148 ft | 362 kts | 130° |
| 2026-04-19 03:36 | 44.64711 | 17.31089 | 19148 ft | 362 kts | 130° |
| 2026-04-19 03:36 | 44.63058 | 17.33754 | 19141 ft | 362 kts | 130° |
| 2026-04-19 03:36 | 44.61407 | 17.36429 | 19141 ft | 362 kts | 129° |
| 2026-04-19 03:37 | 44.59768 | 17.39109 | 19147 ft | 362 kts | 129° |
| 2026-04-19 03:37 | 44.58132 | 17.41796 | 19154 ft | 362 kts | 129° |
| 2026-04-19 03:37 | 44.56495 | 17.44482 | 19149 ft | 362 kts | 129° |
| 2026-04-19 03:37 | 44.54854 | 17.47163 | 19148 ft | 362 kts | 129° |
| 2026-04-19 03:38 | 44.53208 | 17.49839 | 19148 ft | 362 kts | 129° |
| 2026-04-19 03:38 | 44.51586 | 17.52474 | 19147 ft | 362 kts | 129° |
| 2026-04-19 03:38 | 44.49941 | 17.55145 | 19148 ft | 362 kts | 129° |
| 2026-04-19 03:38 | 44.48297 | 17.57816 | 19155 ft | 362 kts | 129° |
| 2026-04-19 03:39 | 44.46606 | 17.60560 | 19156 ft | 380 kts | 129° |
| 2026-04-19 03:39 | 44.45433 | 17.62460 | 19152 ft | 384 kts | 130° |
| 2026-04-19 03:39 | 44.43681 | 17.65286 | 19151 ft | 386 kts | 130° |
| 2026-04-19 03:39 | 44.41918 | 17.68123 | 19150 ft | 386 kts | 130° |
| 2026-04-19 03:40 | 44.39586 | 17.71879 | 19150 ft | 386 kts | 130° |
| 2026-04-19 03:40 | 44.38399 | 17.73792 | 19149 ft | 386 kts | 130° |
| 2026-04-19 03:40 | 44.36637 | 17.76633 | 19150 ft | 386 kts | 129° |
| 2026-04-19 03:40 | 44.34869 | 17.79472 | 19153 ft | 387 kts | 130° |
| 2026-04-19 03:41 | 44.33100 | 17.82302 | 19149 ft | 387 kts | 130° |
| 2026-04-19 03:41 | 44.31334 | 17.85121 | 19154 ft | 386 kts | 130° |
| 2026-04-19 03:41 | 44.29563 | 17.87943 | 19152 ft | 385 kts | 130° |
| 2026-04-19 03:41 | 44.27820 | 17.90718 | 19153 ft | 385 kts | 130° |
| 2026-04-19 03:42 | 44.26052 | 17.93529 | 19154 ft | 385 kts | 130° |
| 2026-04-19 03:42 | 44.24282 | 17.96343 | 19156 ft | 385 kts | 130° |
| 2026-04-19 03:42 | 44.22516 | 17.99148 | 19157 ft | 385 kts | 130° |
| 2026-04-19 03:42 | 44.20747 | 18.01954 | 19158 ft | 385 kts | 130° |
| 2026-04-19 03:43 | 44.18986 | 18.04778 | 19152 ft | 385 kts | 129° |
| 2026-04-19 03:43 | 44.17247 | 18.07615 | 19151 ft | 385 kts | 129° |
| 2026-04-19 03:43 | 44.15510 | 18.10457 | 19166 ft | 385 kts | 130° |
| 2026-04-19 03:43 | 44.13427 | 18.12769 | 19155 ft | 387 kts | 154° |
| 2026-04-19 03:44 | 44.10843 | 18.13693 | 19151 ft | 385 kts | 180° |
| 2026-04-19 03:44 | 44.08256 | 18.13053 | 19117 ft | 371 kts | 204° |
| 2026-04-19 03:44 | 44.06093 | 18.11173 | 18385 ft | 366 kts | 223° |
| 2026-04-19 03:44 | 44.04151 | 18.08870 | 17316 ft | 370 kts | 219° |
| 2026-04-19 03:45 | 44.01914 | 18.07044 | 16247 ft | 376 kts | 204° |
| 2026-04-19 03:45 | 43.99386 | 18.06036 | 15212 ft | 380 kts | 190° |
| 2026-04-19 03:45 | 43.96750 | 18.05632 | 14213 ft | 382 kts | 183° |
| 2026-04-19 03:45 | 43.94100 | 18.05654 | 13140 ft | 381 kts | 170° |
| 2026-04-19 03:46 | 43.91653 | 18.06947 | 12081 ft | 377 kts | 144° |
| 2026-04-19 03:46 | 43.89859 | 18.09503 | 11078 ft | 369 kts | 121° |
| 2026-04-19 03:46 | 43.88744 | 18.12663 | 10134 ft | 361 kts | 109° |
| 2026-04-19 03:46 | 43.87951 | 18.15932 | 9143 ft | 354 kts | 107° |
| 2026-04-19 03:47 | 43.86935 | 18.18998 | 8169 ft | 349 kts | 124° |
| 2026-04-19 03:47 | 43.85123 | 18.21109 | 7735 ft | 335 kts | 153° |
| 2026-04-19 03:47 | 43.82932 | 18.21929 | 7595 ft | 320 kts | 175° |
| 2026-04-19 03:47 | 43.80768 | 18.21708 | 7466 ft | 306 kts | 192° |
| 2026-04-19 03:48 | 43.78828 | 18.20701 | 7344 ft | 292 kts | 208° |
| 2026-04-19 03:48 | 43.77218 | 18.19100 | 7211 ft | 280 kts | 224° |
| 2026-04-19 03:48 | 43.76017 | 18.17073 | 7089 ft | 267 kts | 239° |
| 2026-04-19 03:48 | 43.75266 | 18.14806 | 6994 ft | 253 kts | 254° |
| 2026-04-19 03:49 | 43.74954 | 18.12506 | 6997 ft | 235 kts | 268° |
| 2026-04-19 03:49 | 43.75095 | 18.10317 | 6799 ft | 227 kts | 295° |
| 2026-04-19 03:49 | 43.76083 | 18.08705 | 6484 ft | 220 kts | 326° |
| 2026-04-19 03:49 | 43.77325 | 18.07439 | 6172 ft | 222 kts | 326° |
| 2026-04-19 03:50 | 43.78691 | 18.06533 | 5859 ft | 217 kts | 351° |
| 2026-04-19 03:50 | 43.80185 | 18.06323 | 5537 ft | 215 kts | 1° |
| 2026-04-19 03:50 | 43.81652 | 18.06431 | 5255 ft | 213 kts | 9° |
| 2026-04-19 03:50 | 43.83071 | 18.06785 | 5080 ft | 199 kts | 15° |
| 2026-04-19 03:51 | 43.84366 | 18.07342 | 4750 ft | 191 kts | 22° |
| 2026-04-19 03:51 | 43.85571 | 18.08124 | 4312 ft | 190 kts | 26° |
| 2026-04-19 03:51 | 43.86783 | 18.08889 | 4303 ft | 192 kts | 24° |
| 2026-04-19 03:51 | 43.87955 | 18.09792 | 4303 ft | 193 kts | 36° |
| 2026-04-19 03:52 | 43.88890 | 18.11122 | 4303 ft | 194 kts | 57° |
| 2026-04-19 03:52 | 43.89373 | 18.12856 | 4305 ft | 195 kts | 81° |
| 2026-04-19 03:52 | 43.89280 | 18.14708 | 4307 ft | 189 kts | 107° |
| 2026-04-19 03:52 | 43.88757 | 18.16262 | 4224 ft | 166 kts | 117° |
| 2026-04-19 03:53 | 43.88255 | 18.17613 | 4026 ft | 150 kts | 117° |
| 2026-04-19 03:53 | 43.87792 | 18.18858 | 3842 ft | 142 kts | 117° |
| 2026-04-19 03:53 | 43.87347 | 18.20056 | 3674 ft | 138 kts | 117° |
| 2026-04-19 03:53 | 43.86908 | 18.21236 | 3510 ft | 137 kts | 117° |
| 2026-04-19 03:54 | 43.86475 | 18.22395 | 3342 ft | 135 kts | 117° |
| 2026-04-19 03:54 | 43.86044 | 18.23551 | 3171 ft | 134 kts | 117° |
| 2026-04-19 03:54 | 43.85619 | 18.24690 | 2979 ft | 133 kts | 117° |
| 2026-04-19 03:54 | 43.85194 | 18.25830 | 2782 ft | 133 kts | 117° |
| 2026-04-19 03:55 | 43.84771 | 18.26960 | 2576 ft | 132 kts | 118° |
| 2026-04-19 03:55 | 43.84345 | 18.28101 | 2368 ft | 132 kts | 118° |
| 2026-04-19 03:55 | 43.83926 | 18.29223 | 2160 ft | 131 kts | 118° |
| 2026-04-19 03:55 | 43.83508 | 18.30336 | 1978 ft | 129 kts | 118° |
| 2026-04-19 03:56 | 43.83098 | 18.31442 | 1743 ft | 127 kts | 118° |
| 2026-04-19 03:56 | 43.82703 | 18.32496 | 1677 ft | 117 kts | 118° |
| 2026-04-19 03:56 | 43.82391 | 18.33322 | 1693 ft | 73 kts | 118° |
| 2026-04-19 03:56 | 43.82274 | 18.33665 | 1698 ft | 11 kts | 72° |
| 2026-04-19 03:57 | 43.82356 | 18.33671 | 1691 ft | 16 kts | 341° |
| 2026-04-19 03:57 | 43.82420 | 18.33641 | 1690 ft | 2 kts | 342° |
| 2026-04-19 03:57 | 43.82421 | 18.33640 | 1689 ft | 0 kts | 342° |
| 2026-04-19 03:57 | 43.82439 | 18.33633 | 1690 ft | 5 kts | 342° |
| 2026-04-19 03:58 | 43.82474 | 18.33592 | 1686 ft | 7 kts | 329° |
| 2026-04-19 03:58 | 43.82516 | 18.33610 | 1688 ft | 7 kts | 30° |
| 2026-04-19 03:58 | 43.82534 | 18.33624 | 1691 ft | 2 kts | 30° |
| 2026-04-19 03:58 | 43.82539 | 18.33628 | 1689 ft | 0 kts | 30° |